createdAt,value
2017-04-22T00:00:48.122Z,9.02
2017-04-22T00:01:46.532Z,10.42
2017-04-22T00:02:44.785Z,9.60
2017-04-22T00:03:43.096Z,9.20
2017-04-22T00:04:41.523Z,9.60
2017-04-22T00:05:39.823Z,9.82
2017-04-22T00:06:38.206Z,10.22
2017-04-22T00:07:36.598Z,9.52
2017-04-22T00:08:35.670Z,9.72
2017-04-22T00:09:33.978Z,9.67
2017-04-22T00:10:32.420Z,9.17
2017-04-22T00:11:31.543Z,8.98
2017-04-22T00:12:29.953Z,9.42
2017-04-22T00:13:28.270Z,9.82
2017-04-22T00:14:26.782Z,8.08
2017-04-22T00:15:25.050Z,7.80
2017-04-22T00:16:23.517Z,8.08
2017-04-22T00:17:21.857Z,8.75
2017-04-22T00:18:20.825Z,9.43
2017-04-22T00:19:19.184Z,8.37
2017-04-22T00:20:18.949Z,8.55
2017-04-22T00:21:17.315Z,8.58
2017-04-22T00:22:15.763Z,8.92
2017-04-22T00:23:15.031Z,8.77
2017-04-22T00:24:13.320Z,9.30
2017-04-22T00:25:11.627Z,9.95
2017-04-22T00:26:10.582Z,8.70
2017-04-22T00:27:08.875Z,8.77
2017-04-22T00:28:07.143Z,8.73
2017-04-22T00:29:05.440Z,7.87
2017-04-22T00:30:04.257Z,9.72
2017-04-22T00:31:02.596Z,9.70
2017-04-22T00:32:00.904Z,9.05
2017-04-22T00:32:59.213Z,7.97
2017-04-22T00:33:58.218Z,9.23
2017-04-22T00:34:56.522Z,9.38
2017-04-22T00:35:55.458Z,9.13
2017-04-22T00:36:53.770Z,8.80
2017-04-22T00:37:52.288Z,8.95
2017-04-22T00:38:50.582Z,8.50
2017-04-22T00:39:48.897Z,8.43
2017-04-22T00:40:47.240Z,8.60
2017-04-22T00:41:45.877Z,8.55
2017-04-22T00:42:44.265Z,8.82
2017-04-22T00:43:42.559Z,9.07
2017-04-22T00:44:40.929Z,9.27
2017-04-22T00:45:39.224Z,8.08
2017-04-22T00:46:37.438Z,8.90
2017-04-22T00:47:35.702Z,9.83
2017-04-22T00:48:34.967Z,9.88
2017-04-22T00:49:33.268Z,9.62
2017-04-22T00:50:32.142Z,9.62
2017-04-22T00:51:30.456Z,10.37
2017-04-22T00:52:28.761Z,10.33
2017-04-22T00:53:27.032Z,11.10
2017-04-22T00:54:25.843Z,10.68
2017-04-22T00:55:24.131Z,9.93
2017-04-22T00:56:23.021Z,9.73
2017-04-22T00:57:21.344Z,11.03
2017-04-22T00:58:19.620Z,10.93
2017-04-22T00:59:18.482Z,11.58
2017-04-22T01:00:16.811Z,12.07
2017-04-22T01:01:15.883Z,11.30
2017-04-22T01:02:16.291Z,10.85
2017-04-22T01:03:14.603Z,11.40
2017-04-22T01:04:12.974Z,12.63
2017-04-22T01:05:11.852Z,11.98
2017-04-22T01:06:10.143Z,10.92
2017-04-22T01:07:08.571Z,11.40
2017-04-22T01:08:07.783Z,11.05
2017-04-22T01:09:06.248Z,10.32
2017-04-22T01:10:04.697Z,10.57
2017-04-22T01:11:04.529Z,10.75
2017-04-22T01:12:02.609Z,10.95
2017-04-22T01:13:00.921Z,11.95
2017-04-22T01:13:59.320Z,10.12
2017-04-22T01:14:58.396Z,10.62
2017-04-22T01:15:57.615Z,10.80
2017-04-22T01:16:56.845Z,11.02
2017-04-22T01:17:55.273Z,11.13
2017-04-22T01:18:53.555Z,11.28
2017-04-22T01:19:51.864Z,10.12
2017-04-22T01:20:50.463Z,12.08
2017-04-22T01:21:48.947Z,11.38
2017-04-22T01:22:47.270Z,10.07
2017-04-22T01:23:46.204Z,10.98
2017-04-22T01:24:44.436Z,10.60
2017-04-22T01:25:43.443Z,10.60
2017-04-22T01:26:42.314Z,10.48
2017-04-22T01:27:41.090Z,10.32
2017-04-22T01:28:39.414Z,10.40
2017-04-22T01:29:38.267Z,11.62
2017-04-22T01:30:36.677Z,10.97
2017-04-22T01:31:35.043Z,9.90
2017-04-22T01:32:33.287Z,11.03
2017-04-22T01:33:31.532Z,9.68
2017-04-22T01:34:29.757Z,10.62
2017-04-22T01:35:28.927Z,10.78
2017-04-22T01:36:27.355Z,11.10
2017-04-22T01:37:25.715Z,10.85
2017-04-22T01:38:24.031Z,10.63
2017-04-22T01:39:22.331Z,9.88
2017-04-22T01:40:20.599Z,10.32
2017-04-22T01:41:18.853Z,11.12
2017-04-22T01:42:17.958Z,10.27
2017-04-22T01:43:16.261Z,11.02
2017-04-22T01:44:14.501Z,10.83
2017-04-22T01:45:13.449Z,11.08
2017-04-22T01:46:12.427Z,9.93
2017-04-22T01:47:11.416Z,8.87
2017-04-22T01:48:10.541Z,10.50
2017-04-22T01:49:09.558Z,10.38
2017-04-22T01:50:07.812Z,10.45
2017-04-22T01:51:06.035Z,9.23
2017-04-22T01:52:05.022Z,9.48
2017-04-22T01:53:03.843Z,10.90
2017-04-22T01:54:02.258Z,9.72
2017-04-22T01:55:01.311Z,10.00
2017-04-22T01:56:00.697Z,9.97
2017-04-22T01:56:59.002Z,9.47
2017-04-22T01:57:57.987Z,10.40
2017-04-22T01:58:57.145Z,9.57
2017-04-22T01:59:56.093Z,8.90
2017-04-22T02:00:54.435Z,9.50
2017-04-22T02:01:52.879Z,10.30
2017-04-22T02:02:51.121Z,10.38
2017-04-22T02:03:49.414Z,10.17
2017-04-22T02:04:50.018Z,10.50
2017-04-22T02:05:48.355Z,10.35
2017-04-22T02:06:48.301Z,9.95
2017-04-22T02:07:46.657Z,9.75
2017-04-22T02:08:44.980Z,10.27
2017-04-22T02:09:43.315Z,9.40
2017-04-22T02:10:42.342Z,9.22
2017-04-22T02:11:40.740Z,9.73
2017-04-22T02:12:39.043Z,9.18
2017-04-22T02:13:38.074Z,8.88
2017-04-22T02:14:36.397Z,9.17
2017-04-22T02:15:35.429Z,8.97
2017-04-22T02:16:33.766Z,9.37
2017-04-22T02:17:32.107Z,9.15
2017-04-22T02:18:31.278Z,9.83
2017-04-22T02:19:29.507Z,8.87
2017-04-22T02:20:27.919Z,8.72
2017-04-22T02:21:27.023Z,9.85
2017-04-22T02:22:25.884Z,9.48
2017-04-22T02:23:24.231Z,8.87
2017-04-22T02:24:22.586Z,8.17
2017-04-22T02:25:20.954Z,8.85
2017-04-22T02:26:19.314Z,9.73
2017-04-22T02:27:17.630Z,9.08
2017-04-22T02:28:15.955Z,9.88
2017-04-22T02:29:14.215Z,9.82
2017-04-22T02:30:12.606Z,8.08
2017-04-22T02:31:10.872Z,11.08
2017-04-22T02:32:09.163Z,9.20
2017-04-22T02:33:07.560Z,9.35
2017-04-22T02:34:06.530Z,9.38
2017-04-22T02:35:05.555Z,9.45
2017-04-22T02:36:03.965Z,10.13
2017-04-22T02:37:02.280Z,10.35
2017-04-22T02:38:00.537Z,9.38
2017-04-22T02:38:59.843Z,9.60
2017-04-22T02:39:58.133Z,11.28
2017-04-22T02:40:57.630Z,9.17
2017-04-22T02:41:56.307Z,10.47
2017-04-22T02:42:54.541Z,9.47
2017-04-22T02:43:52.840Z,9.98
2017-04-22T02:44:51.186Z,10.03
2017-04-22T02:45:49.489Z,11.22
2017-04-22T02:46:48.718Z,9.75
2017-04-22T02:47:46.628Z,10.22
2017-04-22T02:48:44.914Z,10.52
2017-04-22T02:49:43.485Z,10.92
2017-04-22T02:50:41.951Z,10.13
2017-04-22T02:51:40.215Z,11.03
2017-04-22T02:52:38.573Z,10.82
2017-04-22T02:53:37.421Z,9.98
2017-04-22T02:54:35.698Z,9.48
2017-04-22T02:55:33.942Z,10.32
2017-04-22T02:56:32.241Z,10.27
2017-04-22T02:57:30.513Z,10.15
2017-04-22T02:58:28.892Z,11.65
2017-04-22T02:59:27.319Z,10.60
2017-04-22T03:00:26.135Z,11.30
2017-04-22T03:01:24.588Z,11.00
2017-04-22T03:02:23.443Z,11.02
2017-04-22T03:03:21.718Z,10.67
2017-04-22T03:04:20.012Z,9.95
2017-04-22T03:05:18.328Z,10.25
2017-04-22T03:06:18.051Z,10.30
2017-04-22T03:07:16.330Z,10.07
2017-04-22T03:08:14.577Z,11.43
2017-04-22T03:09:12.856Z,10.82
2017-04-22T03:10:11.219Z,11.08
2017-04-22T03:11:09.903Z,12.92
2017-04-22T03:12:08.304Z,11.28
2017-04-22T03:13:06.821Z,11.58
2017-04-22T03:14:05.511Z,11.47
2017-04-22T03:15:03.948Z,11.77
2017-04-22T03:16:03.274Z,11.95
2017-04-22T03:17:01.701Z,11.63
2017-04-22T03:17:59.945Z,11.77
2017-04-22T03:18:58.183Z,12.83
2017-04-22T03:19:56.454Z,11.83
2017-04-22T03:20:54.722Z,13.05
2017-04-22T03:21:53.081Z,13.55
2017-04-22T03:22:52.027Z,13.58
2017-04-22T03:23:51.039Z,11.93
2017-04-22T03:24:49.360Z,11.87
2017-04-22T03:25:47.720Z,12.62
2017-04-22T03:26:46.714Z,12.22
2017-04-22T03:27:44.971Z,12.70
2017-04-22T03:28:43.247Z,12.68
2017-04-22T03:29:42.067Z,13.43
2017-04-22T03:30:40.771Z,13.37
2017-04-22T03:31:39.196Z,12.48
2017-04-22T03:32:38.239Z,13.60
2017-04-22T03:33:36.503Z,13.97
2017-04-22T03:34:34.864Z,12.53
2017-04-22T03:35:33.127Z,14.12
2017-04-22T03:36:31.386Z,13.95
2017-04-22T03:37:30.286Z,12.75
2017-04-22T03:38:29.511Z,12.90
2017-04-22T03:39:28.708Z,13.48
2017-04-22T03:40:27.749Z,14.28
2017-04-22T03:41:26.171Z,13.30
2017-04-22T03:42:24.570Z,12.50
2017-04-22T03:43:22.814Z,14.55
2017-04-22T03:44:21.050Z,13.02
2017-04-22T03:45:19.307Z,13.68
2017-04-22T03:46:17.570Z,13.48
2017-04-22T03:47:15.812Z,13.65
2017-04-22T03:48:14.050Z,13.53
2017-04-22T03:49:12.309Z,14.82
2017-04-22T03:50:10.614Z,14.97
2017-04-22T03:51:08.962Z,13.07
2017-04-22T03:52:07.327Z,14.17
2017-04-22T03:53:05.785Z,14.93
2017-04-22T03:54:04.133Z,14.68
2017-04-22T03:55:03.291Z,13.28
2017-04-22T03:56:01.529Z,15.03
2017-04-22T03:56:59.918Z,14.47
2017-04-22T03:57:58.773Z,15.18
2017-04-22T03:58:57.032Z,14.42
2017-04-22T03:59:55.511Z,14.87
2017-04-22T04:00:53.852Z,15.28
2017-04-22T04:01:52.858Z,13.02
2017-04-22T04:02:51.122Z,13.88
2017-04-22T04:03:50.015Z,12.67
2017-04-22T04:04:48.878Z,13.07
2017-04-22T04:05:47.333Z,13.45
2017-04-22T04:06:45.613Z,14.43
2017-04-22T04:07:44.017Z,14.10
2017-04-22T04:08:42.287Z,12.98
2017-04-22T04:09:41.295Z,15.18
2017-04-22T04:10:39.649Z,13.50
2017-04-22T04:11:37.858Z,13.10
2017-04-22T04:12:36.135Z,13.78
2017-04-22T04:13:34.403Z,12.32
2017-04-22T04:14:32.720Z,12.55
2017-04-22T04:15:31.054Z,12.97
2017-04-22T04:16:29.579Z,14.35
2017-04-22T04:17:28.631Z,14.98
2017-04-22T04:18:26.936Z,14.22
2017-04-22T04:19:25.950Z,12.97
2017-04-22T04:20:24.359Z,13.62
2017-04-22T04:21:22.631Z,14.15
2017-04-22T04:22:21.108Z,13.73
2017-04-22T04:23:19.413Z,12.87
2017-04-22T04:24:17.723Z,19.58
2017-04-22T04:25:16.651Z,16.10
2017-04-22T04:26:15.957Z,14.28
2017-04-22T04:27:14.341Z,14.35
2017-04-22T04:28:13.326Z,14.05
2017-04-22T04:29:12.268Z,13.55
2017-04-22T04:30:11.275Z,14.18
2017-04-22T04:31:09.511Z,13.08
2017-04-22T04:32:08.519Z,13.70
2017-04-22T04:33:06.855Z,14.35
2017-04-22T04:34:05.156Z,13.67
2017-04-22T04:35:04.100Z,12.60
2017-04-22T04:36:02.922Z,13.53
2017-04-22T04:37:01.176Z,13.42
2017-04-22T04:37:59.454Z,12.20
2017-04-22T04:38:58.366Z,13.20
2017-04-22T04:39:56.616Z,12.78
2017-04-22T04:40:54.923Z,13.87
2017-04-22T04:41:53.178Z,13.70
2017-04-22T04:42:51.403Z,13.73
2017-04-22T04:43:50.391Z,12.20
2017-04-22T04:44:48.680Z,12.88
2017-04-22T04:45:46.959Z,13.32
2017-04-22T04:46:45.232Z,13.87
2017-04-22T04:47:43.525Z,13.20
2017-04-22T04:48:42.601Z,12.73
2017-04-22T04:49:41.006Z,13.03
2017-04-22T04:50:39.310Z,12.67
2017-04-22T04:51:38.988Z,12.37
2017-04-22T04:52:37.234Z,13.63
2017-04-22T04:53:36.737Z,12.23
2017-04-22T04:54:35.911Z,13.97
2017-04-22T04:55:34.170Z,13.25
2017-04-22T04:56:33.207Z,14.28
2017-04-22T04:57:31.503Z,14.62
2017-04-22T04:58:30.518Z,12.83
2017-04-22T04:59:29.312Z,13.22
2017-04-22T05:00:27.583Z,14.23
2017-04-22T05:01:25.913Z,13.92
2017-04-22T05:02:25.034Z,13.28
2017-04-22T05:03:23.392Z,12.83
2017-04-22T05:04:21.725Z,13.85
2017-04-22T05:05:20.880Z,14.98
2017-04-22T05:06:19.362Z,13.82
2017-04-22T05:07:17.631Z,13.13
2017-04-22T05:08:15.884Z,14.08
2017-04-22T05:09:14.282Z,12.55
2017-04-22T05:10:12.670Z,14.15
2017-04-22T05:11:12.167Z,14.20
2017-04-22T05:12:11.170Z,13.65
2017-04-22T05:13:09.405Z,13.42
2017-04-22T05:23:58.396Z,12.28
2017-04-22T05:24:56.662Z,12.90
2017-04-22T05:25:54.961Z,12.65
2017-04-22T05:26:56.137Z,13.52
2017-04-22T05:27:54.959Z,13.87
2017-04-22T05:28:53.002Z,14.03
2017-04-22T05:29:51.269Z,15.60
2017-04-22T05:30:49.924Z,13.37
2017-04-22T05:31:48.212Z,14.65
2017-04-22T05:32:46.587Z,14.07
2017-04-22T05:33:45.072Z,14.62
2017-04-22T05:34:44.117Z,12.83
2017-04-22T05:35:42.457Z,12.38
2017-04-22T05:36:41.052Z,13.48
2017-04-22T05:37:39.465Z,13.22
2017-04-22T05:38:38.547Z,13.37
2017-04-22T05:39:36.830Z,13.85
2017-04-22T05:40:36.742Z,13.22
2017-04-22T05:41:35.813Z,14.05
2017-04-22T05:42:34.441Z,13.57
2017-04-22T05:43:32.966Z,14.35
2017-04-22T05:44:32.510Z,14.07
2017-04-22T05:45:30.862Z,14.45
2017-04-22T05:46:30.610Z,14.78
2017-04-22T05:47:32.040Z,13.42
2017-04-22T05:48:32.231Z,13.00
2017-04-22T05:49:31.009Z,13.97
2017-04-22T05:50:29.644Z,12.60
2017-04-22T05:51:28.054Z,13.78
2017-04-22T05:52:26.332Z,15.38
2017-04-22T05:53:24.939Z,13.75
2017-04-22T05:54:24.652Z,12.55
2017-04-22T05:55:23.691Z,12.35
2017-04-22T05:56:24.852Z,12.45
2017-04-22T05:57:24.194Z,14.77
2017-04-22T05:58:23.507Z,15.25
2017-04-22T05:59:22.305Z,13.47
2017-04-22T06:00:21.632Z,13.93
2017-04-22T06:01:23.334Z,13.30
2017-04-22T06:02:22.958Z,14.12
2017-04-22T06:03:22.021Z,14.87
2017-04-22T06:04:21.175Z,14.60
2017-04-22T06:05:19.596Z,13.12
2017-04-22T06:06:17.948Z,13.47
2017-04-22T06:07:16.223Z,13.03
2017-04-22T06:08:14.493Z,13.40
2017-04-22T06:09:14.180Z,12.83
2017-04-22T06:10:13.118Z,14.87
2017-04-22T06:11:12.027Z,14.42
2017-04-22T06:12:10.311Z,14.60
2017-04-22T06:13:08.675Z,14.67
2017-04-22T06:14:08.070Z,15.05
2017-04-22T06:15:07.626Z,15.88
2017-04-22T06:16:07.490Z,14.22
2017-04-22T06:17:07.353Z,14.97
2017-04-22T06:18:05.648Z,13.77
2017-04-22T06:19:04.453Z,13.38
2017-04-22T06:20:03.623Z,13.95
2017-04-22T06:21:03.673Z,14.58
2017-04-22T06:22:01.985Z,14.30
2017-04-22T06:23:00.246Z,12.30
2017-04-22T06:23:59.845Z,13.72
2017-04-22T06:24:58.900Z,14.77
2017-04-22T06:25:57.203Z,13.43
2017-04-22T06:26:55.677Z,13.83
2017-04-22T06:27:53.926Z,14.22
2017-04-22T06:28:52.174Z,12.85
2017-04-22T06:29:50.479Z,14.22
2017-04-22T06:30:48.710Z,13.10
2017-04-22T06:31:47.478Z,14.60
2017-04-22T06:32:45.993Z,14.02
2017-04-22T06:33:45.020Z,13.47
2017-04-22T06:34:43.650Z,13.13
2017-04-22T06:35:41.910Z,13.13
2017-04-22T06:36:40.210Z,14.80
2017-04-22T06:37:39.367Z,14.70
2017-04-22T06:38:37.629Z,13.05
2017-04-22T06:39:35.878Z,14.37
2017-04-22T06:40:34.482Z,13.67
2017-04-22T06:41:36.218Z,14.03
2017-04-22T06:42:38.536Z,14.78
2017-04-22T06:43:38.572Z,13.78
2017-04-22T06:44:39.382Z,14.25
2017-04-22T06:45:39.352Z,15.02
2017-04-22T06:46:37.632Z,15.80
2017-04-22T06:47:35.872Z,15.65
2017-04-22T06:48:34.302Z,16.17
2017-04-22T06:49:32.921Z,15.63
2017-04-22T06:50:31.260Z,15.28
2017-04-22T06:51:30.954Z,14.55
2017-04-22T06:52:29.242Z,15.00
2017-04-22T06:53:27.878Z,14.92
2017-04-22T06:54:26.179Z,14.90
2017-04-22T06:55:30.633Z,14.28
2017-04-22T06:56:35.488Z,13.65
2017-04-22T06:57:35.923Z,15.08
2017-04-22T06:58:34.708Z,15.53
2017-04-22T06:59:36.270Z,15.20
2017-04-22T07:00:36.344Z,15.90
2017-04-22T07:01:35.067Z,15.80
2017-04-22T07:02:42.109Z,15.97
2017-04-22T07:03:40.965Z,15.20
2017-04-22T07:04:41.938Z,15.05
2017-04-22T07:05:42.192Z,15.28
2017-04-22T07:06:41.087Z,15.65
2017-04-22T07:07:43.685Z,14.93
2017-04-22T07:08:43.349Z,15.88
2017-04-22T07:09:42.596Z,15.15
2017-04-22T07:10:42.562Z,15.23
2017-04-22T07:11:42.291Z,14.93
2017-04-22T07:12:43.879Z,16.15
2017-04-22T07:13:43.828Z,16.35
2017-04-22T07:14:44.153Z,15.12
2017-04-22T07:15:43.969Z,16.43
2017-04-22T07:16:44.122Z,16.48
2017-04-22T07:17:42.916Z,15.53
2017-04-22T07:18:46.877Z,16.60
2017-04-22T07:19:46.723Z,14.77
2017-04-22T07:20:48.427Z,16.28
2017-04-22T07:21:48.252Z,15.18
2017-04-22T07:22:53.430Z,17.13
2017-04-22T07:23:53.224Z,18.55
2017-04-22T07:24:55.901Z,17.60
2017-04-22T07:25:56.001Z,16.63
2017-04-22T07:26:58.292Z,16.20
2017-04-22T07:27:58.133Z,17.03
2017-04-22T07:28:59.547Z,15.65
2017-04-22T07:29:58.179Z,15.23
2017-04-22T07:30:58.416Z,15.83
2017-04-22T07:31:57.469Z,16.50
2017-04-22T07:32:55.975Z,15.87
2017-04-22T07:34:02.845Z,17.10
2017-04-22T07:35:08.332Z,16.28
2017-04-22T07:36:12.663Z,16.72
2017-04-22T07:37:13.525Z,16.83
2017-04-22T07:38:16.856Z,16.65
2017-04-22T07:39:20.121Z,16.72
2017-04-22T07:40:22.165Z,17.85
2017-04-22T07:41:21.699Z,16.97
2017-04-22T07:42:19.993Z,15.95
2017-04-22T07:43:19.042Z,17.97
2017-04-22T07:44:17.606Z,17.78
2017-04-22T07:45:15.903Z,17.55
2017-04-22T07:46:14.827Z,16.88
2017-04-22T07:47:13.229Z,19.03
2017-04-22T07:48:11.684Z,18.13
2017-04-22T07:49:10.103Z,18.47
2017-04-22T07:50:09.800Z,17.53
2017-04-22T07:51:08.301Z,18.90
2017-04-22T07:52:06.826Z,15.90
2017-04-22T07:53:05.418Z,17.28
2017-04-22T07:54:03.806Z,17.18
2017-04-22T07:55:04.095Z,18.48
2017-04-22T07:56:02.426Z,18.90
2017-04-22T07:57:00.852Z,17.63
2017-04-22T07:57:59.918Z,16.30
2017-04-22T07:58:59.010Z,17.52
2017-04-22T07:59:57.388Z,17.57
2017-04-22T08:00:56.666Z,17.30
2017-04-22T08:01:55.357Z,18.52
2017-04-22T08:02:54.408Z,18.32
2017-04-22T08:03:54.984Z,18.05
2017-04-22T08:04:53.252Z,17.05
2017-04-22T08:05:51.801Z,17.77
2017-04-22T08:06:50.855Z,17.22
2017-04-22T08:07:51.163Z,17.00
2017-04-22T08:08:50.355Z,17.67
2017-04-22T08:09:51.204Z,17.70
2017-04-22T08:10:52.789Z,17.80
2017-04-22T08:11:53.326Z,16.85
2017-04-22T08:12:53.016Z,17.58
2017-04-22T08:13:52.176Z,16.67
2017-04-22T08:14:51.551Z,16.22
2017-04-22T08:15:50.600Z,16.35
2017-04-22T08:16:48.978Z,17.13
2017-04-22T08:17:47.323Z,16.88
2017-04-22T08:18:46.800Z,18.13
2017-04-22T08:19:46.181Z,18.50
2017-04-22T08:20:46.468Z,17.03
2017-04-22T08:21:46.715Z,16.75
2017-04-22T08:22:46.126Z,18.40
2017-04-22T08:23:49.168Z,15.68
2017-04-22T08:24:48.786Z,14.05
2017-04-22T08:38:46.599Z,14.02
2017-04-22T08:39:45.427Z,3.88
2017-04-22T08:40:44.373Z,3.87
2017-04-22T08:41:44.144Z,4.35
2017-04-22T08:42:42.514Z,3.12
2017-04-22T08:43:40.812Z,3.00
2017-04-22T08:44:39.816Z,3.10
2017-04-22T08:45:38.146Z,2.42
2017-04-22T08:46:36.654Z,2.53
2017-04-22T08:47:34.951Z,2.00
2017-04-22T08:48:33.233Z,1.70
2017-04-22T08:49:31.585Z,1.83
2017-04-22T08:50:29.872Z,1.78
2017-04-22T08:51:28.500Z,1.32
2017-04-22T08:52:28.270Z,1.55
2017-04-22T08:53:27.806Z,1.52
2017-04-22T08:54:28.513Z,1.32
2017-04-22T08:55:30.690Z,1.27
2017-04-22T08:56:31.542Z,1.25
2017-04-22T08:57:31.646Z,1.22
2017-04-22T08:58:30.895Z,1.20
2017-04-22T08:59:29.167Z,1.20
2017-04-22T09:00:27.577Z,1.00
2017-04-22T09:01:25.943Z,1.52
2017-04-22T09:02:24.306Z,0.93
2017-04-22T09:03:22.568Z,1.10
2017-04-22T09:04:20.909Z,1.02
2017-04-22T09:05:19.190Z,0.73
2017-04-22T09:06:17.543Z,1.02
2017-04-22T09:07:15.866Z,1.28
2017-04-22T09:08:14.276Z,0.90
2017-04-22T09:09:12.550Z,0.82
2017-04-22T09:10:10.867Z,1.00
2017-04-22T09:11:09.228Z,1.02
2017-04-22T09:12:07.591Z,0.88
2017-04-22T09:13:05.904Z,1.27
2017-04-22T09:14:04.939Z,1.28
2017-04-22T09:15:04.042Z,0.92
2017-04-22T09:16:02.387Z,1.40
2017-04-22T09:17:00.773Z,0.83
2017-04-22T09:17:59.018Z,1.05
2017-04-22T09:18:57.340Z,0.90
2017-04-22T09:19:55.608Z,1.13
2017-04-22T09:20:54.700Z,1.42
2017-04-22T09:21:53.045Z,1.78
2017-04-22T09:22:51.475Z,1.30
2017-04-22T09:23:51.068Z,1.22
2017-04-22T09:24:49.437Z,1.20
2017-04-22T09:25:47.916Z,1.25
2017-04-22T09:26:47.222Z,1.10
2017-04-22T09:27:45.592Z,1.05
2017-04-22T09:28:43.934Z,1.38
2017-04-22T09:29:42.302Z,1.03
2017-04-22T09:30:40.620Z,1.35
2017-04-22T09:31:38.998Z,1.20
2017-04-22T09:32:37.783Z,1.25
2017-04-22T09:33:37.174Z,1.25
2017-04-22T09:34:36.211Z,1.77
2017-04-22T09:35:34.554Z,1.50
2017-04-22T09:36:32.816Z,1.48
2017-04-22T09:37:31.120Z,1.12
2017-04-22T09:38:29.378Z,1.48
2017-04-22T09:39:28.462Z,1.27
2017-04-22T09:40:26.860Z,1.72
2017-04-22T09:41:25.138Z,1.37
2017-04-22T09:42:24.205Z,1.17
2017-04-22T09:43:22.636Z,1.03
2017-04-22T09:44:20.919Z,1.28
2017-04-22T09:45:19.894Z,1.47
2017-04-22T09:46:18.248Z,1.12
2017-04-22T09:47:16.564Z,0.97
2017-04-22T09:48:14.841Z,1.10
2017-04-22T09:49:14.514Z,1.15
2017-04-22T09:50:12.806Z,1.15
2017-04-22T09:51:11.149Z,1.33
2017-04-22T09:52:09.498Z,1.00
2017-04-22T09:53:07.803Z,1.10
2017-04-22T09:54:06.500Z,2.32
2017-04-22T09:55:05.730Z,1.60
2017-04-22T09:56:04.516Z,1.50
2017-04-22T09:57:03.940Z,1.43
2017-04-22T09:58:02.295Z,1.12
2017-04-22T09:59:00.572Z,1.58
2017-04-22T10:00:00.214Z,1.58
2017-04-22T10:00:58.551Z,1.17
2017-04-22T10:01:57.248Z,1.52
2017-04-22T10:02:56.283Z,1.42
2017-04-22T10:03:54.580Z,1.65
2017-04-22T10:04:52.936Z,1.47
2017-04-22T10:05:51.203Z,1.53
2017-04-22T10:06:49.483Z,1.92
2017-04-22T10:07:48.761Z,1.83
2017-04-22T10:08:47.111Z,1.30
2017-04-22T10:09:45.441Z,1.40
2017-04-22T10:10:43.792Z,1.68
2017-04-22T10:11:42.889Z,1.80
2017-04-22T10:12:41.239Z,1.55
2017-04-22T10:13:40.312Z,2.23
2017-04-22T10:14:39.388Z,2.97
2017-04-22T10:15:37.782Z,2.83
2017-04-22T10:16:36.115Z,2.52
2017-04-22T10:17:35.031Z,2.60
2017-04-22T10:18:34.296Z,2.65
2017-04-22T10:19:32.687Z,2.40
2017-04-22T10:20:32.229Z,2.15
2017-04-22T10:21:31.741Z,2.40
2017-04-22T10:22:30.481Z,2.13
2017-04-22T10:23:28.793Z,2.10
2017-04-22T10:24:27.224Z,2.45
2017-04-22T10:25:25.546Z,2.22
2017-04-22T10:26:25.147Z,2.42
2017-04-22T10:27:25.096Z,1.87
2017-04-22T10:28:23.405Z,2.75
2017-04-22T10:29:21.762Z,2.25
2017-04-22T10:30:20.140Z,2.28
2017-04-22T10:31:18.408Z,2.63
2017-04-22T10:32:17.131Z,3.52
2017-04-22T10:33:16.303Z,2.00
2017-04-22T10:34:15.346Z,2.43
2017-04-22T10:35:13.714Z,2.50
2017-04-22T10:36:12.108Z,1.67
2017-04-22T10:37:12.257Z,1.67
2017-04-22T10:38:10.602Z,2.62
2017-04-22T10:39:09.875Z,2.18
2017-04-22T10:40:08.262Z,2.40
2017-04-22T10:41:07.302Z,2.87
2017-04-22T10:42:06.303Z,2.42
2017-04-22T10:43:04.849Z,3.05
2017-04-22T10:44:03.928Z,3.27
2017-04-22T10:45:03.099Z,2.35
2017-04-22T10:46:02.980Z,2.60
2017-04-22T10:47:02.677Z,2.15
2017-04-22T10:48:02.319Z,2.17
2017-04-22T10:58:45.716Z,2.33
2017-04-22T10:59:43.974Z,2.24
2017-04-22T11:00:42.243Z,2.24
2017-04-22T11:01:40.532Z,2.29
2017-04-22T11:02:39.640Z,2.31
2017-04-22T11:03:37.967Z,2.50
2017-04-22T11:04:36.927Z,2.07
2017-04-22T11:05:35.460Z,1.87
2017-04-22T11:06:34.728Z,2.26
2017-04-22T11:07:33.698Z,2.13
2017-04-22T11:08:33.022Z,2.13
2017-04-22T11:09:31.722Z,2.37
2017-04-22T11:10:30.903Z,2.33
2017-04-22T11:11:29.992Z,2.86
2017-04-22T11:12:29.095Z,2.66
2017-04-22T11:13:27.535Z,2.54
2017-04-22T11:14:26.370Z,3.37
2017-04-22T11:15:26.028Z,2.76
2017-04-22T11:16:25.256Z,2.86
2017-04-22T11:17:24.387Z,2.70
2017-04-22T11:18:23.853Z,2.53
2017-04-22T11:19:22.377Z,2.76
2017-04-22T11:20:20.843Z,3.21
2017-04-22T11:21:20.019Z,2.87
2017-04-22T11:22:19.082Z,2.57
2017-04-22T11:23:17.461Z,3.07
2017-04-22T11:24:16.754Z,3.33
2017-04-22T11:25:15.112Z,3.00
2017-04-22T11:26:13.848Z,2.86
2017-04-22T11:27:12.362Z,3.29
2017-04-22T11:28:10.759Z,3.87
2017-04-22T11:29:09.941Z,2.74
2017-04-22T11:30:09.005Z,3.06
2017-04-22T11:31:07.678Z,3.07
2017-04-22T11:32:06.949Z,3.31
2017-04-22T11:33:06.623Z,2.74
2017-04-22T11:34:06.584Z,2.86
2017-04-22T11:35:06.440Z,2.83
2017-04-22T11:36:04.994Z,3.13
2017-04-22T11:37:03.877Z,3.50
2017-04-22T11:38:02.371Z,3.56
2017-04-22T11:39:00.818Z,4.09
2017-04-22T11:39:59.104Z,4.19
2017-04-22T11:40:58.032Z,3.46
2017-04-22T11:41:56.370Z,3.34
2017-04-22T11:42:56.183Z,4.10
2017-04-22T11:43:54.715Z,4.01
2017-04-22T11:44:53.784Z,3.16
2017-04-22T11:45:55.034Z,3.87
2017-04-22T11:46:54.617Z,4.14
2017-04-22T11:47:55.024Z,3.59
2017-04-22T11:48:54.072Z,3.57
2017-04-22T11:49:52.371Z,4.17
2017-04-22T11:50:51.306Z,3.83
2017-04-22T11:51:49.660Z,4.09
2017-04-22T11:52:48.583Z,4.04
2017-04-22T11:53:46.924Z,4.37
2017-04-22T11:54:45.927Z,4.74
2017-04-22T11:55:44.373Z,4.33
2017-04-22T11:56:42.838Z,4.39
2017-04-22T11:57:41.195Z,4.09
2017-04-22T11:58:39.601Z,4.09
2017-04-22T11:59:38.007Z,4.96
2017-04-22T12:00:36.993Z,3.94
2017-04-22T12:01:36.150Z,3.79
2017-04-22T12:02:34.618Z,5.04
2017-04-22T12:03:34.006Z,4.64
2017-04-22T12:04:32.313Z,4.24
2017-04-22T12:05:31.404Z,4.49
2017-04-22T12:06:30.517Z,5.50
2017-04-22T12:07:28.779Z,5.53
2017-04-22T12:08:28.966Z,5.19
2017-04-22T12:09:28.006Z,5.37
2017-04-22T12:10:26.283Z,4.74
2017-04-22T12:11:25.216Z,5.31
2017-04-22T12:12:23.451Z,5.77
2017-04-22T12:13:22.089Z,5.67
2017-04-22T12:14:20.418Z,6.37
2017-04-22T12:15:18.995Z,5.23
2017-04-22T12:16:17.358Z,5.94
2017-04-22T12:17:16.670Z,4.91
2017-04-22T12:18:15.858Z,5.14
2017-04-22T12:19:14.209Z,4.89
2017-04-22T12:20:13.090Z,4.91
2017-04-22T12:21:11.552Z,5.33
2017-04-22T12:22:10.593Z,4.91
2017-04-22T12:23:08.923Z,4.90
2017-04-22T12:33:52.850Z,6.23
2017-04-22T12:34:51.216Z,5.27
2017-04-22T12:35:49.763Z,6.47
2017-04-22T12:36:48.862Z,6.66
2017-04-22T12:37:47.245Z,6.71
2017-04-22T12:38:45.676Z,8.26
2017-04-22T12:39:44.710Z,7.51
2017-04-22T12:40:43.002Z,7.11
2017-04-22T12:41:41.313Z,7.47
2017-04-22T12:42:41.334Z,7.61
2017-04-22T12:43:39.619Z,8.21
2017-04-22T12:44:37.890Z,7.80
2017-04-22T12:45:36.198Z,7.50
2017-04-22T12:46:35.502Z,7.30
2017-04-22T12:47:33.751Z,7.89
2017-04-22T12:48:32.829Z,7.69
2017-04-22T12:49:31.159Z,7.83
2017-04-22T12:50:31.448Z,8.38
2017-04-22T12:51:30.336Z,7.30
2017-04-22T12:52:29.321Z,8.40
2017-04-22T12:53:29.272Z,7.62
2017-04-22T12:54:27.723Z,8.02
2017-04-22T12:55:26.043Z,8.48
2017-04-22T12:56:24.296Z,8.08
2017-04-22T12:57:23.677Z,8.62
2017-04-22T12:58:22.739Z,8.42
2017-04-22T12:59:21.090Z,8.90
2017-04-22T13:00:19.331Z,7.77
2017-04-22T13:01:17.712Z,8.23
2017-04-22T13:02:16.041Z,8.37
2017-04-22T13:03:15.068Z,8.52
2017-04-22T13:04:13.382Z,7.16
2017-04-22T13:05:13.440Z,8.97
2017-04-22T13:06:12.286Z,8.45
2017-04-22T13:07:11.872Z,8.35
2017-04-22T13:08:10.961Z,8.43
2017-04-22T13:09:10.021Z,8.27
2017-04-22T13:10:09.247Z,6.70
2017-04-22T13:11:07.580Z,7.96
2017-04-22T13:12:05.837Z,6.67
2017-04-22T13:13:05.168Z,7.47
2017-04-22T13:14:04.332Z,7.37
2017-04-22T13:15:03.103Z,6.29
2017-04-22T13:16:01.643Z,5.56
2017-04-22T13:17:00.568Z,6.50
2017-04-22T13:17:59.126Z,5.91
2017-04-22T13:18:57.997Z,5.39
2017-04-22T13:19:56.353Z,6.37
2017-04-22T13:20:54.733Z,5.20
2017-04-22T13:21:53.078Z,5.46
2017-04-22T13:22:51.778Z,5.50
2017-04-22T13:23:51.075Z,5.64
2017-04-22T13:24:50.272Z,6.07
2017-04-22T13:25:49.186Z,4.94
2017-04-22T13:26:47.710Z,5.57
2017-04-22T13:27:46.140Z,5.59
2017-04-22T13:28:45.423Z,5.84
2017-04-22T13:29:43.907Z,4.81
2017-04-22T13:30:42.311Z,5.09
2017-04-22T13:31:41.209Z,4.90
2017-04-22T13:32:39.637Z,6.17
2017-04-22T13:33:39.368Z,5.56